Time;durP1;ratioP1;P1;durP2;ratioP2;P2;SDS_P1;SDS_P2;PMS_P1;PMS_P2;Temp;Humidity;BMP_temperature;BMP_pressure;BME280_temperature;BME280_humidity;BME280_pressure;Samples;Min_cycle;Max_cycle;Signal;HPM_P1;HPM_P2
2021/06/30 00:02:13;;;;;;;13.53;6.50;;;25.80;71.90;;;;;;6274248;28;20199;-61
2021/06/30 00:05:21;;;;;;;9.87;5.93;;;25.70;72.20;;;;;;6273701;28;20245;-64
2021/06/30 00:08:27;;;;;;;11.10;6.13;;;25.60;72.00;;;;;;6273699;28;20227;-61
2021/06/30 00:11:35;;;;;;;11.87;6.33;;;25.50;71.70;;;;;;6274095;28;20223;-63
2021/06/30 00:14:45;;;;;;;6.53;5.37;;;25.40;71.10;;;;;;6274467;28;20234;-63
2021/06/30 00:17:54;;;;;;;10.70;7.07;;;25.30;70.70;;;;;;6260013;28;20227;-64
2021/06/30 00:21:03;;;;;;;11.03;6.27;;;25.20;71.80;;;;;;6268007;28;20227;-64
2021/06/30 00:24:11;;;;;;;14.90;6.20;;;25.20;72.60;;;;;;6271508;28;20570;-63
2021/06/30 00:27:19;;;;;;;14.30;6.23;;;25.10;72.60;;;;;;6256473;28;20227;-67
2021/06/30 00:30:27;;;;;;;10.90;6.40;;;25.10;72.50;;;;;;6270238;28;20570;-68
2021/06/30 00:33:37;;;;;;;8.50;5.83;;;25.20;72.40;;;;;;6271131;28;20216;-68
2021/06/30 00:36:46;;;;;;;11.80;5.63;;;25.20;72.20;;;;;;6270674;28;20227;-68
2021/06/30 00:39:55;;;;;;;9.60;5.57;;;25.20;71.70;;;;;;6272520;28;20215;-69
2021/06/30 00:43:03;;;;;;;9.93;6.27;;;25.20;72.20;;;;;;6271910;28;20667;-63
2021/06/30 00:46:11;;;;;;;9.77;5.57;;;25.30;72.40;;;;;;6272392;28;20294;-63
2021/06/30 00:49:20;;;;;;;8.47;5.50;;;25.30;72.80;;;;;;6271053;28;20682;-63
2021/06/30 00:52:29;;;;;;;7.90;5.40;;;25.40;72.50;;;;;;6273850;28;20223;-68
2021/06/30 00:55:38;;;;;;;11.20;6.17;;;25.40;72.90;;;;;;6273754;28;20240;-69
2021/06/30 00:58:46;;;;;;;9.80;5.70;;;25.30;73.20;;;;;;6273908;28;20582;-69
2021/06/30 01:01:55;;;;;;;11.70;6.87;;;25.30;73.70;;;;;;6273727;28;20227;-69
2021/06/30 01:05:05;;;;;;;8.13;5.37;;;25.20;73.00;;;;;;6273919;28;20224;-68
2021/06/30 01:08:13;;;;;;;10.10;5.40;;;25.20;71.70;;;;;;6273251;28;20646;-68
2021/06/30 01:11:17;;;;;;;7.40;5.00;;;25.20;71.30;;;;;;6273845;28;20207;-68
2021/06/30 01:14:26;;;;;;;9.13;5.20;;;25.20;70.90;;;;;;6273812;28;20219;-68
2021/06/30 01:17:34;;;;;;;6.93;5.00;;;25.20;70.00;;;;;;6278365;28;20230;-69
2021/06/30 01:20:43;;;;;;;6.97;4.30;;;25.10;69.30;;;;;;6278257;28;20224;-63
2021/06/30 01:23:53;;;;;;;7.10;4.30;;;25.20;68.90;;;;;;6278564;28;20223;-63
2021/06/30 01:27:01;;;;;;;10.97;4.40;;;25.10;68.80;;;;;;6277219;28;20587;-63
2021/06/30 01:30:11;;;;;;;12.47;4.70;;;25.10;68.80;;;;;;6272632;28;20227;-65
2021/06/30 01:33:19;;;;;;;7.97;4.73;;;25.00;68.70;;;;;;6276578;28;20679;-64
2021/06/30 01:36:27;;;;;;;8.33;5.53;;;24.90;69.30;;;;;;6253570;28;20240;-63
2021/06/30 01:39:37;;;;;;;10.90;4.40;;;24.80;69.90;;;;;;6252805;28;20267;-63
2021/06/30 01:42:43;;;;;;;7.90;5.03;;;24.80;71.10;;;;;;6253302;28;20370;-69
2021/06/30 01:45:52;;;;;;;14.40;6.43;;;24.80;71.40;;;;;;6252760;28;20714;-68
2021/06/30 01:49:00;;;;;;;11.77;6.23;;;24.80;72.50;;;;;;6252986;28;20224;-66
2021/06/30 01:52:08;;;;;;;9.77;5.10;;;24.60;72.70;;;;;;6253172;28;20311;-63
2021/06/30 01:55:18;;;;;;;6.50;4.33;;;24.50;73.00;;;;;;6252929;28;20231;-64
2021/06/30 01:58:26;;;;;;;9.87;5.10;;;24.50;73.30;;;;;;6252471;28;20236;-70
2021/06/30 02:01:34;;;;;;;7.33;4.30;;;24.60;72.60;;;;;;6252781;28;20232;-68
2021/06/30 02:04:43;;;;;;;5.20;4.57;;;24.50;72.10;;;;;;6252332;28;20224;-69
2021/06/30 02:07:53;;;;;;;7.93;5.20;;;24.40;71.80;;;;;;6252649;28;20228;-69
2021/06/30 02:11:02;;;;;;;14.47;6.03;;;24.50;72.40;;;;;;6252029;28;20236;-69
2021/06/30 02:14:11;;;;;;;5.27;4.57;;;24.60;72.70;;;;;;6252460;28;20540;-70
2021/06/30 02:17:19;;;;;;;11.97;5.83;;;24.60;73.30;;;;;;6252018;28;20617;-69
2021/06/30 02:20:28;;;;;;;6.93;5.10;;;24.50;73.80;;;;;;6252124;28;20561;-68
2021/06/30 02:23:36;;;;;;;6.77;5.10;;;24.40;73.80;;;;;;6252596;28;20231;-69
2021/06/30 02:26:47;;;;;;;7.93;5.43;;;24.20;73.90;;;;;;6251645;28;20228;-68
2021/06/30 02:29:56;;;;;;;9.27;5.27;;;24.20;75.00;;;;;;6251760;28;20668;-69
2021/06/30 02:33:05;;;;;;;7.53;5.80;;;24.20;76.20;;;;;;6252004;28;20227;-69
2021/06/30 02:36:13;;;;;;;16.87;6.43;;;24.00;76.90;;;;;;6251856;28;20224;-69
2021/06/30 02:39:17;;;;;;;9.17;5.90;;;23.90;77.70;;;;;;6251944;28;20236;-68
2021/06/30 02:42:26;;;;;;;7.67;5.50;;;23.90;78.60;;;;;;6251394;28;20228;-69
2021/06/30 02:45:35;;;;;;;12.43;6.70;;;23.80;79.10;;;;;;6251896;28;20235;-71
2021/06/30 02:48:38;;;;;;;10.40;5.87;;;23.80;79.10;;;;;;6251309;28;20687;-71
2021/06/30 02:51:46;;;;;;;8.80;6.07;;;23.70;79.40;;;;;;6273532;28;20223;-70
2021/06/30 02:54:54;;;;;;;11.30;6.70;;;23.50;79.80;;;;;;6275808;28;20238;-70
2021/06/30 02:58:04;;;;;;;8.53;5.90;;;23.40;80.60;;;;;;6275861;28;20228;-71
2021/06/30 03:01:12;;;;;;;6.67;5.80;;;23.40;81.10;;;;;;6275785;28;20239;-71
2021/06/30 03:04:20;;;;;;;6.23;5.23;;;23.30;81.10;;;;;;6276250;28;20242;-71
2021/06/30 03:07:28;;;;;;;7.93;5.43;;;23.30;80.90;;;;;;6275579;28;20239;-65
2021/06/30 03:10:36;;;;;;;8.67;5.67;;;23.30;81.20;;;;;;6275627;28;20231;-71
2021/06/30 03:13:46;;;;;;;8.50;5.33;;;23.20;81.20;;;;;;6275782;28;20238;-71
2021/06/30 03:16:54;;;;;;;9.13;4.90;;;23.20;81.00;;;;;;6275911;28;20226;-66
2021/06/30 03:20:03;;;;;;;7.87;5.00;;;23.20;80.50;;;;;;6275456;28;20236;-63
2021/06/30 03:23:11;;;;;;;7.07;4.90;;;23.20;80.20;;;;;;6276008;28;20219;-63
2021/06/30 03:26:19;;;;;;;11.40;5.80;;;23.20;79.80;;;;;;6275639;28;20804;-71
2021/06/30 03:29:28;;;;;;;6.97;4.70;;;23.20;79.60;;;;;;6275717;28;20659;-66
2021/06/30 03:32:37;;;;;;;7.47;4.80;;;23.20;80.00;;;;;;6275201;28;20229;-66
2021/06/30 03:35:45;;;;;;;5.10;4.20;;;23.20;79.80;;;;;;6275631;28;20234;-66
2021/06/30 03:38:53;;;;;;;8.13;5.77;;;23.20;80.10;;;;;;6259973;28;20231;-65
2021/06/30 03:42:01;;;;;;;10.67;4.57;;;23.20;80.50;;;;;;6275140;28;20582;-65
2021/06/30 03:45:11;;;;;;;7.53;4.60;;;23.20;80.70;;;;;;6274693;28;20567;-66
2021/06/30 03:48:20;;;;;;;10.13;4.73;;;23.10;80.80;;;;;;6274596;28;20231;-65
2021/06/30 03:51:28;;;;;;;9.33;5.47;;;23.10;80.50;;;;;;6274690;28;20224;-65
2021/06/30 03:54:36;;;;;;;6.57;4.30;;;23.10;80.70;;;;;;6274690;28;20247;-65
2021/06/30 03:57:44;;;;;;;6.63;4.23;;;23.20;80.70;;;;;;6274537;28;20680;-65
2021/06/30 04:00:53;;;;;;;12.83;4.13;;;23.20;81.40;;;;;;6274901;28;20232;-65
2021/06/30 04:04:05;;;;;;;8.90;3.97;;;23.20;80.30;;;;;;6274350;28;20719;-65
2021/06/30 04:07:13;;;;;;;7.10;3.77;;;23.20;79.50;;;;;;6274470;28;20306;-70
2021/06/30 04:10:18;;;;;;;3.60;3.20;;;23.20;79.20;;;;;;6274260;28;20227;-65
2021/06/30 04:13:26;;;;;;;6.30;3.70;;;23.20;79.30;;;;;;6274668;28;20224;-71
2021/06/30 04:16:35;;;;;;;5.90;3.70;;;23.30;79.20;;;;;;6274220;28;20216;-64
2021/06/30 04:19:43;;;;;;;4.87;3.47;;;23.30;78.60;;;;;;6274499;28;20232;-71
2021/06/30 04:22:51;;;;;;;4.97;2.90;;;23.40;78.30;;;;;;6274100;28;20238;-72
2021/06/30 04:25:59;;;;;;;4.87;3.03;;;23.40;77.60;;;;;;6274708;28;20224;-66
2021/06/30 04:29:07;;;;;;;6.20;2.90;;;23.40;77.60;;;;;;6274007;28;20220;-70
2021/06/30 04:32:12;;;;;;;3.57;2.07;;;23.40;77.00;;;;;;6274677;28;20294;-70
2021/06/30 04:35:20;;;;;;;5.00;2.33;;;23.40;76.80;;;;;;6273992;28;20616;-71
2021/06/30 04:38:29;;;;;;;4.10;2.23;;;23.50;76.70;;;;;;6273648;28;20239;-71
2021/06/30 04:41:38;;;;;;;3.47;2.23;;;23.50;76.10;;;;;;6274256;28;20230;-71
2021/06/30 04:44:46;;;;;;;8.33;2.43;;;23.60;75.30;;;;;;6274253;28;20693;-71
2021/06/30 04:47:55;;;;;;;3.43;1.60;;;23.70;75.40;;;;;;6273696;28;20235;-71
2021/06/30 04:51:04;;;;;;;5.40;2.30;;;23.70;74.70;;;;;;6276337;28;20249;-70
2021/06/30 04:54:14;;;;;;;3.33;1.97;;;23.80;75.20;;;;;;6278390;28;20574;-70
2021/06/30 04:57:22;;;;;;;10.97;2.20;;;23.90;75.00;;;;;;6279097;28;20227;-70
2021/06/30 05:00:30;;;;;;;1.80;1.70;;;23.90;74.40;;;;;;6278315;28;20580;-70
2021/06/30 05:03:39;;;;;;;3.83;1.83;;;24.00;74.50;;;;;;6278972;28;20238;-70
2021/06/30 05:06:48;;;;;;;3.87;1.70;;;24.10;74.10;;;;;;6278628;28;20232;-70
2021/06/30 05:09:56;;;;;;;4.73;1.83;;;24.10;73.20;;;;;;6278644;28;20227;-70
2021/06/30 05:13:04;;;;;;;5.87;1.57;;;24.10;73.00;;;;;;6278387;28;20229;-70
2021/06/30 05:16:07;;;;;;;3.63;1.60;;;24.20;73.30;;;;;;6278552;28;20237;-70
2021/06/30 05:19:17;;;;;;;3.57;1.77;;;24.20;73.10;;;;;;6278149;28;20228;-70
2021/06/30 05:22:25;;;;;;;2.93;1.50;;;24.30;73.10;;;;;;6278157;28;20235;-69
2021/06/30 05:25:33;;;;;;;2.93;1.60;;;24.30;73.00;;;;;;6278009;28;20232;-69
2021/06/30 05:28:41;;;;;;;5.43;1.63;;;24.30;73.20;;;;;;6278075;28;20219;-69
2021/06/30 05:31:49;;;;;;;3.20;2.00;;;24.40;73.00;;;;;;6277891;28;20231;-70
2021/06/30 05:34:59;;;;;;;7.30;2.60;;;24.30;72.80;;;;;;6278115;28;20710;-70
2021/06/30 05:38:07;;;;;;;4.50;2.00;;;24.50;73.10;;;;;;6277585;28;20227;-70
2021/06/30 05:41:10;;;;;;;3.90;2.20;;;24.70;72.80;;;;;;6278120;28;20294;-69
2021/06/30 05:44:15;;;;;;;3.33;1.60;;;24.60;72.20;;;;;;6277691;28;20217;-70
2021/06/30 05:47:23;;;;;;;3.23;1.80;;;24.70;72.60;;;;;;6268563;28;20212;-70
2021/06/30 05:50:33;;;;;;;4.33;1.83;;;24.90;72.40;;;;;;6277213;28;20223;-70
2021/06/30 05:53:41;;;;;;;3.90;2.10;;;25.10;71.90;;;;;;6277543;28;20227;-70
2021/06/30 05:56:49;;;;;;;4.23;1.67;;;25.20;71.00;;;;;;6277550;28;20224;-71
2021/06/30 05:59:52;;;;;;;4.60;2.53;;;25.20;70.80;;;;;;6277397;28;20227;-71
2021/06/30 06:03:01;;;;;;;4.47;2.00;;;25.40;70.60;;;;;;6276080;28;20234;-71
2021/06/30 06:06:11;;;;;;;4.10;2.20;;;25.40;70.40;;;;;;6277641;28;20231;-71
2021/06/30 06:09:19;;;;;;;7.10;2.37;;;25.50;70.30;;;;;;6277577;28;20227;-71
2021/06/30 06:12:27;;;;;;;5.60;2.60;;;25.70;69.50;;;;;;6278737;28;20231;-70
2021/06/30 06:15:36;;;;;;;5.77;2.13;;;26.10;68.40;;;;;;6277752;28;20716;-69
2021/06/30 06:18:44;;;;;;;7.83;2.07;;;26.40;67.40;;;;;;6277191;28;20245;-72
2021/06/30 06:21:53;;;;;;;2.97;2.30;;;26.80;66.40;;;;;;6277083;28;20223;-71
2021/06/30 06:25:02;;;;;;;5.90;1.77;;;27.30;64.90;;;;;;6276821;28;20233;-71
2021/06/30 06:28:10;;;;;;;2.00;1.40;;;27.90;62.90;;;;;;6276543;28;20219;-71
2021/06/30 06:31:19;;;;;;;3.20;1.60;;;27.80;61.50;;;;;;6276885;28;20226;-66
2021/06/30 06:34:27;;;;;;;3.67;2.30;;;28.10;61.60;;;;;;6276003;28;20226;-66
2021/06/30 06:37:38;;;;;;;30.40;5.27;;;28.70;59.60;;;;;;6273947;28;20215;-64
2021/06/30 06:40:46;;;;;;;3.87;2.07;;;29.10;58.70;;;;;;6275712;28;20235;-64
2021/06/30 06:43:50;;;;;;;2.30;1.60;;;29.50;57.40;;;;;;6276413;28;20230;-64
2021/06/30 06:46:58;;;;;;;3.00;2.13;;;29.80;56.50;;;;;;6275154;28;20219;-64
2021/06/30 06:50:07;;;;;;;6.43;2.60;;;30.00;55.40;;;;;;6275170;28;20254;-66
2021/06/30 06:53:16;;;;;;;3.33;2.00;;;30.10;55.00;;;;;;6267869;28;20219;-64
2021/06/30 06:56:26;;;;;;;3.33;1.97;;;29.90;55.50;;;;;;6274767;28;20627;-64
2021/06/30 06:59:35;;;;;;;2.60;2.10;;;30.60;54.90;;;;;;6274622;28;20223;-65
2021/06/30 07:02:43;;;;;;;3.85;2.20;;;31.00;53.80;;;;;;6275188;28;20223;-63
2021/06/30 07:05:51;;;;;;;3.65;1.80;;;31.80;52.20;;;;;;6273655;28;20655;-63
2021/06/30 07:09:01;;;;;;;7.97;2.85;;;31.30;52.70;;;;;;6274225;28;20243;-64
2021/06/30 07:12:05;;;;;;;5.32;2.17;;;31.60;52.20;;;;;;6275181;28;20263;-64
2021/06/30 07:15:14;;;;;;;4.53;2.63;;;32.00;50.80;;;;;;6272709;28;20238;-65
2021/06/30 07:18:22;;;;;;;3.65;2.05;;;31.90;50.90;;;;;;6275376;28;20219;-65
2021/06/30 07:21:32;;;;;;;2.50;1.92;;;32.00;51.00;;;;;;6275579;28;20239;-64
2021/06/30 07:24:42;;;;;;;3.30;1.85;;;33.20;49.30;;;;;;6275784;28;20223;-65
2021/06/30 07:27:45;;;;;;;3.20;1.85;;;33.20;48.10;;;;;;6274865;28;20682;-65
2021/06/30 07:30:54;;;;;;;2.60;1.85;;;33.70;48.40;;;;;;6274818;28;20250;-63
2021/06/30 07:34:02;;;;;;;2.92;1.85;;;34.40;47.10;;;;;;6275368;28;20227;-63
2021/06/30 07:37:10;;;;;;;9.07;2.28;;;34.30;46.40;;;;;;6274950;28;20234;-66
2021/06/30 07:40:20;;;;;;;4.28;2.95;;;33.50;47.60;;;;;;6275083;28;20231;-65
2021/06/30 07:43:28;;;;;;;5.53;2.22;;;34.40;47.40;;;;;;6274875;28;20227;-64
2021/06/30 07:46:32;;;;;;;4.47;2.35;;;35.10;45.80;;;;;;6274707;28;20330;-64
2021/06/30 07:49:35;;;;;;;7.55;2.58;;;35.60;44.80;;;;;;6274430;28;20238;-64
2021/06/30 07:52:38;;;;;;;2.83;1.85;;;34.60;45.40;;;;;;6274514;28;20237;-64
2021/06/30 07:55:46;;;;;;;4.57;2.25;;;34.40;46.20;;;;;;6274249;28;20227;-64
2021/06/30 07:58:49;;;;;;;3.92;2.30;;;34.20;46.20;;;;;;6274333;28;20675;-64
2021/06/30 08:01:52;;;;;;;7.38;2.58;;;33.00;48.30;;;;;;6274579;28;20237;-65
2021/06/30 08:04:55;;;;;;;3.97;2.00;;;32.80;48.60;;;;;;6273884;28;20238;-63
2021/06/30 08:07:59;;;;;;;10.15;2.50;;;32.80;49.00;;;;;;6272831;28;20233;-64
2021/06/30 08:11:03;;;;;;;2.92;2.20;;;32.60;49.20;;;;;;6273095;28;20230;-65
2021/06/30 08:14:06;;;;;;;4.57;2.40;;;31.30;51.00;;;;;;6271099;28;20222;-63
2021/06/30 08:17:10;;;;;;;5.70;2.60;;;30.40;52.40;;;;;;6270366;28;20215;-64
2021/06/30 08:20:14;;;;;;;3.65;2.55;;;30.20;54.00;;;;;;6274054;28;20304;-64
2021/06/30 08:23:18;;;;;;;4.20;2.80;;;30.00;54.20;;;;;;6273556;28;20199;-64
2021/06/30 08:26:23;;;;;;;5.33;2.60;;;29.10;55.60;;;;;;6273359;28;20195;-62
2021/06/30 08:29:26;;;;;;;7.90;2.80;;;28.70;56.70;;;;;;6273825;28;20235;-62
2021/06/30 08:32:32;;;;;;;5.10;2.50;;;28.60;57.40;;;;;;6274602;28;20223;-64
2021/06/30 08:35:35;;;;;;;2.67;2.43;;;28.80;57.20;;;;;;6272807;28;20684;-61
2021/06/30 08:38:39;;;;;;;4.10;2.43;;;28.70;57.80;;;;;;6273854;28;20235;-64
2021/06/30 08:41:44;;;;;;;7.50;2.87;;;28.70;58.20;;;;;;6273734;28;20689;-64
2021/06/30 08:44:47;;;;;;;6.30;2.60;;;28.70;58.20;;;;;;6274021;28;20552;-62
2021/06/30 08:47:55;;;;;;;3.80;2.63;;;29.00;58.30;;;;;;6274331;28;20301;-63
2021/06/30 08:51:02;;;;;;;4.93;2.67;;;29.30;57.30;;;;;;6273462;28;20581;-64
2021/06/30 08:54:08;;;;;;;3.13;2.50;;;29.60;56.90;;;;;;6274153;28;20242;-63
2021/06/30 08:57:15;;;;;;;4.10;2.10;;;29.40;56.70;;;;;;6273488;28;20237;-65
2021/06/30 09:00:19;;;;;;;3.90;2.80;;;29.30;57.50;;;;;;6269512;28;20242;-61
2021/06/30 09:03:22;;;;;;;3.97;2.57;;;29.50;57.20;;;;;;6273618;28;20262;-64
2021/06/30 09:06:26;;;;;;;3.70;2.90;;;29.50;56.90;;;;;;6274069;28;20699;-63
2021/06/30 09:09:38;;;;;;;11.70;2.90;;;29.30;57.20;;;;;;6272600;28;20246;-62
2021/06/30 09:12:43;;;;;;;3.60;2.53;;;29.40;56.90;;;;;;6272886;28;20358;-64
2021/06/30 09:15:47;;;;;;;3.50;2.40;;;29.30;57.40;;;;;;6273127;28;20246;-64
2021/06/30 09:18:51;;;;;;;3.87;2.73;;;29.30;57.70;;;;;;6273154;28;20219;-63
2021/06/30 09:21:59;;;;;;;4.30;3.00;;;29.30;57.60;;;;;;6273137;28;20241;-64
2021/06/30 09:25:02;;;;;;;5.60;3.20;;;29.30;57.10;;;;;;6273104;28;20701;-64
2021/06/30 09:28:18;;;;;;;5.70;3.13;;;28.90;58.10;;;;;;6272711;28;20245;-62
2021/06/30 09:31:27;;;;;;;7.60;3.60;;;29.00;58.20;;;;;;6272615;28;20235;-62
2021/06/30 09:34:30;;;;;;;4.93;2.40;;;29.00;58.50;;;;;;6272859;28;20693;-65
2021/06/30 09:37:34;;;;;;;3.30;2.43;;;28.90;60.00;;;;;;6276254;28;20725;-62
2021/06/30 09:40:45;;;;;;;5.87;3.00;;;29.30;58.60;;;;;;6277522;28;20235;-63
2021/06/30 09:43:50;;;;;;;4.60;3.10;;;29.70;57.80;;;;;;6277957;28;20230;-62
2021/06/30 09:46:55;;;;;;;3.90;2.73;;;30.00;56.90;;;;;;6277367;28;20238;-65
2021/06/30 09:49:59;;;;;;;5.00;2.70;;;30.30;56.30;;;;;;6277615;28;20371;-63
2021/06/30 09:53:03;;;;;;;3.50;2.50;;;30.30;55.70;;;;;;6277449;28;20323;-63
2021/06/30 09:56:32;;;;;;;5.17;3.03;;;30.30;55.70;;;;;;6277751;28;20567;-64
2021/06/30 09:59:41;;;;;;;5.20;2.80;;;30.30;55.70;;;;;;6277128;28;20231;-64
2021/06/30 10:02:48;;;;;;;3.80;2.78;;;30.40;56.30;;;;;;6277342;28;20305;-66
2021/06/30 10:05:51;;;;;;;3.40;2.57;;;30.30;55.70;;;;;;6267708;28;20223;-64
2021/06/30 10:08:57;;;;;;;7.10;3.00;;;30.10;56.20;;;;;;6277535;28;20231;-65
2021/06/30 10:12:04;;;;;;;4.93;3.23;;;29.90;56.40;;;;;;6277248;28;20226;-65
2021/06/30 10:15:10;;;;;;;4.90;3.13;;;29.90;56.60;;;;;;6277218;28;20774;-63
2021/06/30 10:18:13;;;;;;;3.80;3.37;;;30.10;56.30;;;;;;6276720;28;20804;-62
2021/06/30 10:21:18;;;;;;;6.60;3.03;;;29.80;55.90;;;;;;6276803;28;20227;-63
2021/06/30 10:24:23;;;;;;;4.43;2.80;;;29.40;56.70;;;;;;6277194;28;20222;-63
2021/06/30 10:27:27;;;;;;;6.27;3.00;;;29.40;57.40;;;;;;6277006;28;20226;-66
2021/06/30 10:30:32;;;;;;;5.43;3.33;;;29.50;56.70;;;;;;6276529;28;20683;-65
2021/06/30 10:33:39;;;;;;;4.83;3.10;;;29.70;57.30;;;;;;6277017;28;20293;-65
2021/06/30 10:36:45;;;;;;;5.73;3.57;;;29.70;57.00;;;;;;6275245;28;20227;-65
2021/06/30 10:39:50;;;;;;;5.07;3.27;;;29.60;57.00;;;;;;6276496;28;20234;-65
2021/06/30 10:43:13;;;;;;;3.80;3.40;;;29.60;57.20;;;;;;6276544;28;20237;-64
2021/06/30 10:46:28;;;;;;;4.67;3.30;;;29.50;57.20;;;;;;6276492;28;20241;-64
2021/06/30 10:49:32;;;;;;;8.50;3.50;;;29.60;57.30;;;;;;6275155;28;20235;-64
2021/06/30 10:52:35;;;;;;;6.37;3.80;;;30.10;56.70;;;;;;6275880;28;20223;-64
2021/06/30 10:55:49;;;;;;;8.43;4.03;;;30.30;55.80;;;;;;6275667;28;20536;-62
2021/06/30 10:59:03;;;;;;;7.73;3.10;;;30.50;55.50;;;;;;6276312;28;20231;-63
2021/06/30 11:02:14;;;;;;;6.65;3.85;;;30.70;55.30;;;;;;6275882;28;20248;-62
2021/06/30 11:05:33;;;;;;;4.82;3.72;;;31.10;54.80;;;;;;6276323;28;20256;-63
2021/06/30 11:08:47;;;;;;;4.93;3.72;;;31.10;54.40;;;;;;6275542;28;20365;-61
2021/06/30 11:11:58;;;;;;;6.88;3.42;;;30.90;54.80;;;;;;6276098;28;20230;-65
2021/06/30 11:15:04;;;;;;;8.60;3.53;;;31.20;54.10;;;;;;6275565;28;20253;-63
2021/06/30 11:18:45;;;;;;;4.65;3.90;;;31.20;53.40;;;;;;6276337;28;20317;-64
2021/06/30 11:21:51;;;;;;;6.68;3.85;;;31.30;53.00;;;;;;6251093;28;20236;-62
2021/06/30 11:24:56;;;;;;;10.82;4.05;;;30.80;53.70;;;;;;6270953;28;20219;-62
2021/06/30 11:27:59;;;;;;;11.85;4.68;;;30.80;54.20;;;;;;6276372;28;20231;-62
2021/06/30 11:31:43;;;;;;;7.30;3.13;;;30.90;54.70;;;;;;6275739;28;20239;-61
2021/06/30 11:34:49;;;;;;;4.03;3.40;;;31.00;54.40;;;;;;6274923;28;20230;-63
2021/06/30 11:38:14;;;;;;;7.18;4.13;;;30.70;54.10;;;;;;6273421;28;20245;-66
2021/06/30 11:41:24;;;;;;;4.47;3.25;;;30.60;54.80;;;;;;6272900;28;20234;-63
2021/06/30 11:44:35;;;;;;;8.80;3.17;;;30.30;55.30;;;;;;6272800;28;20199;-63
2021/06/30 11:47:40;;;;;;;4.75;3.50;;;30.40;55.60;;;;;;6273152;28;20231;-64
2021/06/30 11:50:53;;;;;;;4.87;3.23;;;30.70;55.00;;;;;;6273248;28;20226;-62
2021/06/30 11:53:56;;;;;;;7.53;3.22;;;30.60;55.50;;;;;;6275093;28;20235;-65
2021/06/30 11:57:06;;;;;;;5.75;3.28;;;31.10;55.30;;;;;;6274410;28;20227;-63
2021/06/30 12:00:12;;;;;;;6.75;3.75;;;31.30;54.80;;;;;;6274758;28;20238;-64
2021/06/30 12:03:15;;;;;;;5.47;3.40;;;30.90;54.50;;;;;;6274609;28;20226;-62
2021/06/30 12:06:25;;;;;;;3.53;2.88;;;30.80;54.30;;;;;;6275198;28;20243;-62
2021/06/30 12:09:30;;;;;;;4.70;3.30;;;30.60;54.90;;;;;;6274546;28;20308;-65
2021/06/30 12:12:33;;;;;;;7.87;3.10;;;30.30;55.30;;;;;;6274561;28;20242;-63
2021/06/30 12:15:42;;;;;;;6.78;2.90;;;30.50;55.60;;;;;;6271643;28;20298;-63
2021/06/30 12:18:45;;;;;;;4.90;3.20;;;30.70;55.10;;;;;;6272032;28;20223;-63
2021/06/30 12:21:51;;;;;;;3.92;2.92;;;30.50;55.00;;;;;;6271307;28;20215;-65
2021/06/30 12:25:00;;;;;;;3.50;2.63;;;30.20;56.20;;;;;;6270208;28;20318;-63
2021/06/30 12:28:05;;;;;;;4.07;3.40;;;30.10;56.30;;;;;;6272526;28;20360;-63
2021/06/30 12:31:09;;;;;;;4.17;2.30;;;30.20;56.00;;;;;;6272700;28;20223;-64
2021/06/30 12:34:12;;;;;;;8.07;3.17;;;30.20;56.20;;;;;;6274204;28;20238;-65
2021/06/30 12:37:25;;;;;;;5.73;2.70;;;30.30;55.80;;;;;;6274378;28;20227;-64
2021/06/30 12:40:29;;;;;;;4.10;3.43;;;30.10;56.10;;;;;;6272914;28;20541;-63
2021/06/30 12:43:32;;;;;;;3.33;2.20;;;30.30;56.50;;;;;;6273244;28;20223;-64
2021/06/30 12:46:36;;;;;;;5.60;2.97;;;30.70;56.10;;;;;;6272785;28;20248;-64
2021/06/30 12:49:40;;;;;;;4.93;2.88;;;30.70;55.00;;;;;;6272964;28;20249;-64
2021/06/30 12:52:45;;;;;;;4.25;2.60;;;30.40;55.40;;;;;;6272508;28;20671;-62
2021/06/30 12:55:55;;;;;;;4.00;2.90;;;30.40;54.70;;;;;;6270070;28;20237;-64
2021/06/30 12:58:58;;;;;;;3.30;2.83;;;30.30;55.00;;;;;;6272651;28;20247;-63
2021/06/30 13:02:17;;;;;;;4.27;3.13;;;30.40;55.40;;;;;;6272890;28;20230;-64
2021/06/30 13:05:22;;;;;;;7.67;2.67;;;30.20;56.10;;;;;;6271648;28;20230;-63
2021/06/30 13:08:32;;;;;;;3.60;3.15;;;30.20;55.90;;;;;;6272961;28;20222;-63
2021/06/30 13:11:40;;;;;;;3.20;2.60;;;30.60;55.60;;;;;;6271740;28;20440;-62
2021/06/30 13:14:48;;;;;;;3.70;2.72;;;30.60;55.10;;;;;;6277780;28;20244;-63
2021/06/30 13:17:52;;;;;;;3.20;2.87;;;30.60;55.30;;;;;;6267792;28;20231;-63
2021/06/30 13:21:06;;;;;;;3.77;2.80;;;30.30;55.70;;;;;;6277057;28;20562;-63
2021/06/30 13:24:21;;;;;;;6.60;2.83;;;30.30;55.60;;;;;;6276695;28;20231;-64
2021/06/30 13:27:38;;;;;;;4.03;2.03;;;30.20;56.50;;;;;;6277060;28;20241;-63
2021/06/30 13:34:21;;;;;;;3.97;2.70;;;30.30;55.50;;;;;;6276070;28;20227;-64
2021/06/30 13:37:25;;;;;;;4.70;2.47;;;30.20;55.90;;;;;;6275231;28;20230;-66
2021/06/30 13:40:32;;;;;;;5.80;2.77;;;29.70;56.20;;;;;;6277125;28;20689;-65
2021/06/30 13:43:35;;;;;;;3.23;2.83;;;29.50;56.40;;;;;;6276603;28;20713;-63
2021/06/30 13:46:39;;;;;;;3.33;3.00;;;29.30;56.50;;;;;;6276667;28;20373;-63
2021/06/30 13:49:42;;;;;;;5.23;3.10;;;29.20;57.00;;;;;;6276406;28;20690;-63
2021/06/30 13:52:46;;;;;;;4.80;2.70;;;29.00;57.50;;;;;;6276385;28;20239;-65
2021/06/30 13:55:51;;;;;;;11.90;3.30;;;28.60;58.00;;;;;;6276208;28;20582;-63
2021/06/30 13:58:54;;;;;;;7.27;2.93;;;28.60;58.00;;;;;;6276260;28;20241;-64
2021/06/30 14:01:58;;;;;;;6.57;2.60;;;28.30;58.30;;;;;;6276055;28;20219;-64
2021/06/30 14:05:01;;;;;;;4.30;2.97;;;27.90;59.00;;;;;;6276335;28;20313;-64
2021/06/30 14:08:12;;;;;;;4.13;3.20;;;27.70;59.80;;;;;;6275905;28;20253;-66
2021/06/30 14:11:17;;;;;;;3.93;2.47;;;27.60;60.40;;;;;;6276033;28;20215;-64
2021/06/30 14:14:20;;;;;;;6.13;2.73;;;27.70;60.30;;;;;;6275959;28;20210;-65
2021/06/30 14:17:24;;;;;;;3.70;3.00;;;27.90;59.80;;;;;;6276006;28;20206;-65
2021/06/30 14:20:27;;;;;;;8.67;2.33;;;28.00;59.30;;;;;;6270884;28;20234;-65
2021/06/30 14:23:31;;;;;;;5.70;2.80;;;27.90;59.50;;;;;;6276002;28;20269;-64
2021/06/30 14:26:35;;;;;;;4.40;2.77;;;27.80;59.70;;;;;;6277155;28;20226;-63
2021/06/30 14:29:39;;;;;;;7.13;3.40;;;27.80;58.80;;;;;;6276499;28;20226;-65
2021/06/30 14:32:42;;;;;;;5.00;2.50;;;27.90;58.10;;;;;;6276418;28;20241;-66
2021/06/30 14:35:46;;;;;;;6.03;2.43;;;27.80;58.10;;;;;;6276934;28;20559;-65
2021/06/30 14:38:50;;;;;;;4.33;2.10;;;27.70;58.00;;;;;;6276595;28;20242;-65
2021/06/30 14:41:55;;;;;;;3.83;1.83;;;27.60;58.50;;;;;;6276469;28;20245;-63
2021/06/30 14:44:58;;;;;;;5.10;2.43;;;27.60;59.30;;;;;;6276500;28;20237;-66
2021/06/30 14:48:02;;;;;;;3.20;2.17;;;27.50;59.50;;;;;;6276365;28;20565;-65
2021/06/30 14:51:05;;;;;;;2.83;2.63;;;27.30;61.60;;;;;;6276059;28;20276;-65
2021/06/30 14:54:08;;;;;;;2.73;2.37;;;26.80;64.10;;;;;;6276111;28;20238;-65
2021/06/30 14:57:14;;;;;;;4.03;2.43;;;26.60;63.80;;;;;;6276274;28;20231;-63
2021/06/30 15:00:18;;;;;;;13.40;2.83;;;26.60;64.60;;;;;;6276182;28;20231;-66
2021/06/30 15:03:22;;;;;;;6.00;2.80;;;26.60;68.00;;;;;;6275716;28;20556;-64
2021/06/30 15:06:26;;;;;;;4.40;2.50;;;26.60;72.20;;;;;;6275667;28;20231;-65
2021/06/30 15:09:29;;;;;;;4.63;2.57;;;26.50;71.10;;;;;;6274795;28;20231;-63
2021/06/30 15:12:34;;;;;;;6.47;2.90;;;26.30;71.80;;;;;;6276000;28;20242;-65
2021/06/30 15:15:38;;;;;;;5.17;2.50;;;26.00;75.20;;;;;;6275405;28;20234;-66
2021/06/30 15:18:41;;;;;;;4.13;2.40;;;25.60;74.80;;;;;;6275457;28;20328;-64
2021/06/30 15:21:49;;;;;;;2.90;2.10;;;25.40;74.90;;;;;;6275286;28;20247;-64
2021/06/30 15:24:53;;;;;;;3.20;2.80;;;25.60;75.00;;;;;;6275144;28;20316;-64
2021/06/30 15:27:57;;;;;;;2.87;2.57;;;26.00;75.70;;;;;;6270614;28;20230;-65
2021/06/30 15:31:01;;;;;;;11.90;3.47;;;26.40;75.40;;;;;;6275067;28;20686;-62
2021/06/30 15:34:07;;;;;;;4.93;2.50;;;26.80;71.00;;;;;;6275038;28;20227;-63
2021/06/30 15:37:10;;;;;;;4.03;2.70;;;26.30;69.80;;;;;;6275060;28;20227;-63
2021/06/30 15:40:15;;;;;;;4.03;2.70;;;26.20;69.90;;;;;;6274526;28;20226;-62
2021/06/30 15:43:20;;;;;;;4.47;2.53;;;26.40;75.10;;;;;;6274839;28;20233;-65
2021/06/30 15:46:24;;;;;;;3.07;2.87;;;26.20;75.90;;;;;;6274584;28;20611;-64
2021/06/30 15:49:27;;;;;;;4.83;2.80;;;26.00;75.40;;;;;;6274652;28;20235;-65
2021/06/30 15:52:30;;;;;;;5.43;2.40;;;25.60;77.30;;;;;;6274251;28;20227;-64
2021/06/30 15:55:34;;;;;;;4.10;2.77;;;25.60;79.20;;;;;;6274676;28;20231;-64
2021/06/30 15:58:41;;;;;;;4.20;2.70;;;25.50;78.50;;;;;;6274401;28;20687;-65
2021/06/30 16:01:46;;;;;;;4.13;3.00;;;25.70;78.30;;;;;;6274253;28;20698;-64
2021/06/30 16:04:49;;;;;;;3.70;2.63;;;25.70;78.10;;;;;;6274452;28;20320;-63
2021/06/30 16:07:53;;;;;;;2.67;2.40;;;25.40;77.80;;;;;;6274259;28;20675;-64
2021/06/30 16:10:57;;;;;;;3.00;2.73;;;25.30;78.20;;;;;;6274629;28;20250;-64
2021/06/30 16:14:02;;;;;;;5.43;2.87;;;25.20;79.20;;;;;;6273956;28;20227;-64
2021/06/30 16:17:05;;;;;;;3.93;2.97;;;25.20;79.10;;;;;;6274067;28;20231;-63